createdAt,value
2023-02-14T12:08:39.633Z,96.47
2023-02-14T12:14:53.881Z,93.96
2023-02-14T12:17:33.099Z,93.26
2023-02-14T12:20:09.916Z,91.58
2023-02-14T12:22:44.715Z,89.94
2023-02-14T12:25:18.332Z,88.86
2023-02-14T12:27:51.723Z,87.25
2023-02-14T12:30:22.034Z,86.04
2023-02-14T12:32:51.809Z,85.15
2023-02-14T12:35:29.232Z,84.16
2023-02-14T12:38:08.588Z,84.46
2023-02-14T12:40:51.108Z,84.95
2023-02-14T12:43:34.322Z,85.47
2023-02-14T12:46:21.004Z,85.65
2023-02-14T12:49:05.091Z,85.80
2023-02-14T12:51:41.140Z,85.91
2023-02-14T12:54:37.280Z,85.83
2023-02-14T12:57:25.099Z,85.06
2023-02-14T13:00:04.388Z,84.71
2023-02-14T13:03:13.438Z,84.09
2023-02-14T13:05:54.968Z,83.51
2023-02-14T13:08:40.545Z,82.76
2023-02-14T13:11:19.534Z,82.29
2023-02-14T13:14:04.499Z,81.68
2023-02-14T13:16:39.177Z,81.05
2023-02-14T13:19:16.870Z,80.63
2023-02-14T13:21:46.327Z,80.81
2023-02-14T13:24:19.613Z,81.06
2023-02-14T13:26:53.919Z,81.28
2023-02-14T13:29:25.780Z,81.19
2023-02-14T13:32:03.407Z,81.33
2023-02-14T13:34:54.899Z,81.50
2023-02-14T13:37:33.738Z,81.64
2023-02-14T13:42:57.867Z,81.74
2023-02-14T13:46:06.921Z,81.95
2023-02-14T13:48:38.947Z,81.65
2023-02-14T13:51:09.639Z,81.61
2023-02-14T13:53:43.481Z,81.66
2023-02-14T13:56:35.262Z,82.04
2023-02-14T13:59:06.425Z,82.67
2023-02-14T14:01:42.946Z,83.16
2023-02-14T14:04:36.753Z,83.92
2023-02-14T14:07:23.428Z,84.55
2023-02-14T14:10:12.392Z,85.10
2023-02-14T14:12:42.336Z,85.50
2023-02-14T14:15:19.185Z,85.92
2023-02-14T14:17:50.756Z,86.36
2023-02-14T14:20:49.049Z,86.49
2023-02-14T14:23:37.228Z,86.40
2023-02-14T14:26:32.244Z,86.28
2023-02-14T14:29:00.548Z,85.57
2023-02-14T14:31:29.865Z,85.08
2023-02-14T14:34:02.324Z,83.90
2023-02-14T14:36:31.713Z,83.20
2023-02-14T14:38:59.791Z,82.08
2023-02-14T14:42:08.576Z,80.14
2023-02-14T14:44:52.036Z,79.13
2023-02-14T14:47:29.180Z,78.37
2023-02-14T14:50:49.256Z,77.53
2023-02-14T14:53:52.924Z,76.54
2023-02-14T14:59:35.835Z,76.20
2023-02-14T15:05:35.243Z,75.72
2023-02-14T15:08:42.448Z,76.14
2023-02-14T15:11:44.508Z,75.36
2023-02-14T15:14:21.600Z,75.76
2023-02-14T15:16:52.695Z,75.78
2023-02-14T15:19:33.422Z,75.58
2023-02-14T15:22:06.224Z,75.85
2023-02-14T15:24:39.557Z,76.02
2023-02-14T15:27:16.621Z,76.38
2023-02-14T15:29:55.040Z,76.67
2023-02-14T15:32:24.450Z,76.74
2023-02-14T15:34:53.964Z,76.88
2023-02-14T15:37:23.660Z,76.84
2023-02-14T15:39:57.177Z,76.61
2023-02-14T15:42:29.446Z,76.26
2023-02-14T15:45:16.677Z,75.95
2023-02-14T15:47:47.642Z,76.01
2023-02-14T15:50:22.508Z,76.02
2023-02-14T15:52:52.088Z,76.26
2023-02-14T15:55:26.874Z,76.25
2023-02-14T15:57:59.406Z,76.13
2023-02-14T16:00:30.826Z,76.02
2023-02-14T16:03:03.771Z,75.78
2023-02-14T16:05:32.731Z,75.62
2023-02-14T16:08:04.903Z,75.43
2023-02-14T16:10:36.499Z,75.40
2023-02-14T16:13:09.407Z,75.09
2023-02-14T16:15:42.498Z,74.62
2023-02-14T16:18:20.134Z,74.61
2023-02-14T16:20:51.296Z,74.77
2023-02-14T16:23:26.900Z,74.90
2023-02-14T16:25:58.564Z,75.11
2023-02-14T16:28:32.310Z,75.63
2023-02-14T16:31:05.892Z,75.97
2023-02-14T16:33:38.407Z,76.51
2023-02-14T16:36:17.084Z,77.27
2023-02-14T16:38:46.777Z,78.23
2023-02-14T16:41:24.782Z,79.57
2023-02-14T16:43:55.167Z,80.31
2023-02-14T16:46:27.006Z,81.04
2023-02-14T16:48:55.397Z,82.03
2023-02-14T16:51:28.732Z,82.69
2023-02-14T16:54:00.658Z,83.61
2023-02-14T16:56:38.327Z,84.12
2023-02-14T16:59:07.610Z,84.81
2023-02-14T17:01:36.346Z,85.35
2023-02-14T17:04:06.097Z,86.02
2023-02-14T17:06:37.729Z,86.66
2023-02-14T17:09:08.770Z,87.53
2023-02-14T17:11:43.509Z,88.09
2023-02-14T17:14:16.188Z,88.71
2023-02-14T17:16:46.860Z,89.46
2023-02-14T17:19:15.875Z,90.14
2023-02-14T17:21:44.107Z,90.59
2023-02-14T17:24:12.700Z,91.11
2023-02-14T17:26:42.594Z,91.64
2023-02-14T17:29:10.936Z,91.87
2023-02-14T17:31:39.326Z,92.38
2023-02-14T17:34:07.661Z,92.80
2023-02-14T17:36:36.501Z,93.10
2023-02-14T17:39:05.708Z,93.38
2023-02-14T17:41:34.176Z,93.42
2023-02-14T17:44:05.823Z,93.47
2023-02-14T17:46:34.657Z,93.66
2023-02-14T17:49:03.102Z,93.64
2023-02-14T17:51:33.208Z,93.42
2023-02-14T17:54:01.460Z,93.59
2023-02-14T17:56:29.611Z,93.53
2023-02-14T17:58:58.210Z,93.49
2023-02-14T18:01:31.606Z,93.46
2023-02-14T18:04:00.292Z,93.26
2023-02-14T18:06:33.605Z,93.18
2023-02-14T18:09:01.917Z,92.90
2023-02-14T18:11:31.225Z,92.73
2023-02-14T18:13:59.982Z,92.57
2023-02-14T18:16:31.565Z,92.56
2023-02-14T18:19:04.109Z,92.39
2023-02-14T18:21:35.885Z,92.22
2023-02-14T18:24:04.742Z,92.13
2023-02-14T18:26:34.073Z,91.95
2023-02-14T18:29:06.840Z,91.71
2023-02-14T18:31:38.450Z,91.57
2023-02-14T18:34:07.449Z,91.51
2023-02-14T18:36:37.871Z,90.82
2023-02-14T18:39:07.145Z,90.78
2023-02-14T18:41:36.093Z,90.59
2023-02-14T18:44:04.997Z,90.35
2023-02-14T18:46:37.608Z,90.51
2023-02-14T18:49:08.516Z,90.08
2023-02-14T18:51:39.417Z,89.55
2023-02-14T18:54:08.212Z,89.19
2023-02-14T18:56:38.645Z,89.10
2023-02-14T18:59:09.813Z,88.51
2023-02-14T19:01:42.567Z,87.95
2023-02-14T19:04:12.679Z,87.87
2023-02-14T19:06:41.924Z,87.31
2023-02-14T19:09:12.049Z,86.62
2023-02-14T19:11:46.448Z,86.40
2023-02-14T19:14:14.585Z,86.06
2023-02-14T19:16:51.158Z,86.09
2023-02-14T19:19:19.941Z,85.70
2023-02-14T19:21:48.595Z,85.08
2023-02-14T19:24:18.157Z,84.94
2023-02-14T19:26:46.820Z,84.41
2023-02-14T19:29:17.043Z,83.83
2023-02-14T19:31:48.533Z,83.05
2023-02-14T19:34:19.202Z,82.38
2023-02-14T19:36:48.025Z,81.35
2023-02-14T19:39:16.727Z,80.23
2023-02-14T19:41:46.538Z,79.90
2023-02-14T19:44:17.181Z,79.24
2023-02-14T19:46:47.939Z,79.24
2023-02-14T19:49:18.145Z,78.73
2023-02-14T19:51:47.468Z,78.96
2023-02-14T19:54:16.623Z,78.65
2023-02-14T19:56:46.896Z,78.50
2023-02-14T19:59:20.114Z,78.84
2023-02-14T20:01:52.233Z,78.90
2023-02-14T20:04:22.800Z,78.93
2023-02-14T20:06:52.948Z,79.26
2023-02-14T20:09:22.174Z,79.37
2023-02-14T20:11:54.377Z,79.13
2023-02-14T20:14:27.104Z,79.49
2023-02-14T20:16:58.678Z,79.79
2023-02-14T20:19:29.455Z,80.31
2023-02-14T20:21:58.008Z,80.31
2023-02-14T20:24:27.697Z,80.43
2023-02-14T20:26:56.397Z,80.63
2023-02-14T20:29:26.017Z,80.91
2023-02-14T20:31:59.982Z,81.14
2023-02-14T20:34:28.714Z,81.45
2023-02-14T20:36:59.422Z,81.93
2023-02-14T20:39:30.852Z,82.22
2023-02-14T20:41:59.770Z,82.58
2023-02-14T20:44:28.321Z,82.53
2023-02-14T20:46:59.905Z,82.27
2023-02-14T20:49:30.760Z,82.09
2023-02-14T20:51:59.212Z,82.10
2023-02-14T20:54:30.318Z,82.12
2023-02-14T20:57:00.065Z,81.89
2023-02-14T20:59:28.931Z,81.84
2023-02-14T21:01:59.778Z,81.94
2023-02-14T21:04:29.719Z,81.87
2023-02-14T21:06:59.729Z,82.00
2023-02-14T21:09:29.490Z,81.75
2023-02-14T21:11:58.480Z,81.82
2023-02-14T21:14:27.221Z,81.96
2023-02-14T21:16:55.433Z,81.73
2023-02-14T21:19:26.710Z,81.90
2023-02-14T21:21:56.674Z,81.81
2023-02-14T21:24:25.586Z,81.60
2023-02-14T21:26:54.050Z,81.54
2023-02-14T21:29:22.514Z,81.28
2023-02-14T21:31:50.651Z,81.18
2023-02-14T21:34:18.919Z,81.35
2023-02-14T21:36:49.145Z,81.64
2023-02-14T21:39:17.671Z,81.77
2023-02-14T21:41:45.851Z,82.01
2023-02-14T21:44:34.030Z,82.58
2023-02-14T21:47:02.414Z,82.88
2023-02-14T21:49:48.170Z,83.06
2023-02-14T21:52:17.908Z,82.94
2023-02-14T21:54:46.115Z,82.63
2023-02-14T21:57:14.483Z,82.17
2023-02-14T21:59:42.827Z,82.05
2023-02-14T22:02:14.369Z,81.40
2023-02-14T22:04:44.256Z,80.85
2023-02-14T22:07:12.393Z,80.43
2023-02-14T22:09:41.978Z,80.39
2023-02-14T22:12:10.065Z,80.35
2023-02-14T22:14:38.166Z,80.45
2023-02-14T22:17:06.366Z,80.50
2023-02-14T22:19:36.520Z,80.66
2023-02-14T22:22:04.639Z,81.49
2023-02-14T22:24:33.215Z,82.10
2023-02-14T22:27:04.081Z,83.34
2023-02-14T22:29:32.356Z,84.30
2023-02-14T22:32:00.906Z,84.67
2023-02-14T22:34:29.692Z,84.54
2023-02-14T22:36:57.836Z,83.25
2023-02-14T22:39:27.410Z,83.23
2023-02-14T22:42:02.647Z,82.47
2023-02-14T22:44:32.452Z,82.34
2023-02-14T22:47:02.477Z,81.70
2023-02-14T22:49:31.064Z,81.19
2023-02-14T22:52:00.566Z,80.77
2023-02-14T22:54:28.724Z,80.48
2023-02-14T22:56:56.900Z,79.73
2023-02-14T22:59:27.531Z,78.68
2023-02-14T23:01:57.495Z,78.17
2023-02-14T23:04:25.937Z,76.84
2023-02-14T23:06:56.479Z,76.06
2023-02-14T23:09:25.857Z,75.26
2023-02-14T23:11:54.240Z,74.54
2023-02-14T23:14:39.818Z,73.65
2023-02-14T23:17:33.707Z,73.61
2023-02-14T23:20:19.387Z,73.47
2023-02-14T23:22:48.813Z,73.53
2023-02-14T23:25:16.888Z,73.40
2023-02-14T23:27:50.182Z,73.32
2023-02-14T23:30:19.976Z,73.21
2023-02-14T23:32:49.584Z,73.34
2023-02-14T23:35:17.690Z,73.03
2023-02-14T23:37:45.993Z,72.92
2023-02-14T23:40:14.878Z,72.86
2023-02-14T23:42:43.245Z,72.59
2023-02-14T23:45:28.793Z,72.13
2023-02-14T23:48:03.096Z,71.27
2023-02-14T23:50:31.507Z,71.21
2023-02-14T23:52:59.934Z,71.12
2023-02-14T23:55:29.128Z,71.11
2023-02-14T23:57:57.200Z,71.23
